createdAt,value
2022-11-17T00:01:30.831Z,10.71
2022-11-17T00:03:34.700Z,10.68
2022-11-17T00:05:38.729Z,10.68
2022-11-17T00:07:44.023Z,10.65
2022-11-17T00:09:47.514Z,10.72
2022-11-17T00:12:09.184Z,10.60
2022-11-17T00:14:30.300Z,10.73
2022-11-17T00:16:35.110Z,10.76
2022-11-17T00:18:56.326Z,10.77
2022-11-17T00:21:17.428Z,10.72
2022-11-17T00:23:20.911Z,10.38
2022-11-17T00:25:24.440Z,10.68
2022-11-17T00:27:27.878Z,10.70
2022-11-17T00:29:32.303Z,10.79
2022-11-17T00:31:54.963Z,10.73
2022-11-17T00:34:07.349Z,10.84
2022-11-17T00:36:10.949Z,10.78
2022-11-17T00:38:17.317Z,10.79
2022-11-17T00:40:20.806Z,10.77
2022-11-17T00:42:24.340Z,10.83
2022-11-17T00:44:28.107Z,10.82
2022-11-17T00:46:31.913Z,10.82
2022-11-17T00:48:36.819Z,10.84
2022-11-17T00:50:40.314Z,10.84
2022-11-17T00:52:43.841Z,10.89
2022-11-17T00:54:47.265Z,10.86
2022-11-17T00:56:50.737Z,10.88
2022-11-17T00:58:54.766Z,10.88
2022-11-17T01:00:58.267Z,10.84
2022-11-17T01:03:01.727Z,10.86
2022-11-17T01:05:07.230Z,10.87
2022-11-17T01:07:10.721Z,10.89
2022-11-17T01:09:16.748Z,10.85
2022-11-17T01:11:20.716Z,10.74
2022-11-17T01:13:24.198Z,10.84
2022-11-17T01:15:27.754Z,10.83
2022-11-17T01:17:31.218Z,10.83
2022-11-17T01:19:34.639Z,10.81
2022-11-17T01:21:39.608Z,10.79
2022-11-17T01:23:44.989Z,10.82
2022-11-17T01:25:48.641Z,10.84
2022-11-17T01:27:52.081Z,10.79
2022-11-17T01:29:55.543Z,10.78
2022-11-17T01:31:59.006Z,10.78
2022-11-17T01:34:02.555Z,10.74
2022-11-17T01:36:08.513Z,10.67
2022-11-17T01:38:12.266Z,10.72
2022-11-17T01:40:16.300Z,10.71
2022-11-17T01:42:22.352Z,10.70
2022-11-17T01:44:59.771Z,10.75
2022-11-17T01:47:04.190Z,10.67
2022-11-17T01:49:14.127Z,10.64
2022-11-17T01:51:18.226Z,10.57
2022-11-17T01:53:24.444Z,10.60
2022-11-17T01:55:32.575Z,10.61
2022-11-17T01:57:40.761Z,10.61
2022-11-17T01:59:47.533Z,10.63
2022-11-17T02:01:56.600Z,10.62
2022-11-17T02:04:01.820Z,10.65
2022-11-17T02:06:09.608Z,10.65
2022-11-17T02:08:13.501Z,10.67
2022-11-17T02:10:18.821Z,10.62
2022-11-17T02:12:26.600Z,10.61
2022-11-17T02:14:29.999Z,10.60
2022-11-17T02:16:33.500Z,10.67
2022-11-17T02:18:37.029Z,10.63
2022-11-17T02:20:52.975Z,10.61
2022-11-17T02:23:33.108Z,10.54
2022-11-17T02:25:49.801Z,10.62
2022-11-17T02:28:18.080Z,10.63
2022-11-17T02:30:23.790Z,10.61
2022-11-17T02:32:33.807Z,10.62
2022-11-17T02:34:46.829Z,10.57
2022-11-17T02:36:57.763Z,10.58
2022-11-17T02:39:10.933Z,10.58
2022-11-17T02:41:23.072Z,10.55
2022-11-17T02:43:51.697Z,10.55
2022-11-17T02:46:00.094Z,10.54
2022-11-17T02:48:09.368Z,10.51
2022-11-17T02:50:14.318Z,10.50
2022-11-17T02:52:20.056Z,10.51
2022-11-17T02:54:25.751Z,10.50
2022-11-17T02:56:29.186Z,10.48
2022-11-17T02:58:33.970Z,10.46
2022-11-17T03:00:43.322Z,10.48
2022-11-17T03:03:09.256Z,10.47
2022-11-17T03:05:20.275Z,10.44
2022-11-17T03:07:38.574Z,10.47
2022-11-17T03:09:50.462Z,10.50
2022-11-17T03:12:02.821Z,10.50
2022-11-17T03:14:15.141Z,10.47
2022-11-17T03:16:28.536Z,10.49
2022-11-17T03:18:38.076Z,10.52
2022-11-17T03:20:46.723Z,10.49
2022-11-17T03:22:56.467Z,10.43
2022-11-17T03:25:03.786Z,10.52
2022-11-17T03:27:13.771Z,10.55
2022-11-17T03:29:22.482Z,10.53
2022-11-17T03:31:29.139Z,10.55
2022-11-17T03:33:33.873Z,10.55
2022-11-17T03:35:45.082Z,10.60
2022-11-17T03:37:55.643Z,10.60
2022-11-17T03:40:05.652Z,10.59
2022-11-17T03:42:14.800Z,10.60
2022-11-17T03:44:23.553Z,10.56
2022-11-17T03:46:28.634Z,10.61
2022-11-17T03:48:37.350Z,10.54
2022-11-17T03:50:46.926Z,10.58
2022-11-17T03:52:51.073Z,10.58
2022-11-17T03:54:54.770Z,10.55
2022-11-17T03:57:03.483Z,10.59
2022-11-17T03:59:13.541Z,10.57
2022-11-17T04:01:21.118Z,10.56
2022-11-17T04:03:24.746Z,10.56
2022-11-17T04:05:28.460Z,10.60
2022-11-17T04:07:32.203Z,10.55
2022-11-17T04:09:35.703Z,10.56
2022-11-17T04:11:56.609Z,10.54
2022-11-17T04:14:17.794Z,10.50
2022-11-17T04:16:22.725Z,10.44
2022-11-17T04:18:27.473Z,10.43
2022-11-17T04:20:36.039Z,10.47
2022-11-17T04:22:39.542Z,10.41
2022-11-17T04:24:42.943Z,10.36
2022-11-17T04:27:04.393Z,10.43
2022-11-17T04:29:06.827Z,10.47
2022-11-17T04:31:13.176Z,10.44
2022-11-17T04:33:18.061Z,10.42
2022-11-17T04:35:21.392Z,10.48
2022-11-17T04:37:24.808Z,10.48
2022-11-17T04:39:28.263Z,10.43
2022-11-17T04:41:49.301Z,10.44
2022-11-17T04:43:53.355Z,10.39
2022-11-17T04:46:00.070Z,10.45
2022-11-17T04:48:03.612Z,10.45
2022-11-17T04:50:09.595Z,10.42
2022-11-17T04:52:12.979Z,10.48
2022-11-17T04:54:18.535Z,10.43
2022-11-17T04:56:22.664Z,10.44
2022-11-17T04:58:26.214Z,10.47
2022-11-17T05:00:29.932Z,10.49
2022-11-17T05:02:33.468Z,10.55
2022-11-17T05:04:54.530Z,10.58
2022-11-17T05:06:59.403Z,10.59
2022-11-17T05:09:05.342Z,10.63
2022-11-17T05:11:23.544Z,10.65
2022-11-17T05:13:26.299Z,10.61
2022-11-17T05:15:43.588Z,10.63
2022-11-17T05:17:47.023Z,10.63
2022-11-17T05:19:50.429Z,10.71
2022-11-17T05:21:53.993Z,10.73
2022-11-17T05:23:58.299Z,10.74
2022-11-17T05:26:00.806Z,10.81
2022-11-17T05:28:04.272Z,10.86
2022-11-17T05:30:09.834Z,10.87
2022-11-17T05:32:13.401Z,10.85
2022-11-17T05:34:18.601Z,10.86
2022-11-17T05:36:23.168Z,10.84
2022-11-17T05:38:26.678Z,10.79
2022-11-17T05:40:31.487Z,10.79
2022-11-17T05:42:35.950Z,10.71
2022-11-17T05:44:40.012Z,10.71
2022-11-17T05:46:43.491Z,10.73
2022-11-17T05:48:48.775Z,10.70
2022-11-17T05:50:53.436Z,10.68
2022-11-17T05:52:56.892Z,10.70
2022-11-17T05:55:00.588Z,10.68
2022-11-17T05:57:09.917Z,10.55
2022-11-17T05:59:26.344Z,10.65
2022-11-17T06:01:34.462Z,10.61
2022-11-17T06:03:42.646Z,10.63
2022-11-17T06:05:46.222Z,10.60
2022-11-17T06:07:49.870Z,10.65
2022-11-17T06:09:53.569Z,10.60
2022-11-17T06:12:02.461Z,10.64
2022-11-17T06:14:10.492Z,10.63
2022-11-17T06:16:18.815Z,10.67
2022-11-17T06:18:28.322Z,10.69
2022-11-17T06:20:35.995Z,10.68
2022-11-17T06:22:41.860Z,10.66
2022-11-17T06:24:49.042Z,10.61
2022-11-17T06:26:52.901Z,10.58
2022-11-17T06:28:57.613Z,10.56
2022-11-17T06:31:03.475Z,10.57
2022-11-17T06:33:09.994Z,10.56
2022-11-17T06:35:16.388Z,10.52
2022-11-17T06:37:19.885Z,10.52
2022-11-17T06:39:23.332Z,10.51
2022-11-17T06:41:26.922Z,10.57
2022-11-17T06:43:30.224Z,10.59
2022-11-17T06:45:34.612Z,10.48
2022-11-17T06:47:39.770Z,10.63
2022-11-17T06:49:43.173Z,10.34
2022-11-17T06:51:46.591Z,10.56
2022-11-17T06:53:50.023Z,10.56
2022-11-17T06:56:01.242Z,10.61
2022-11-17T06:58:07.347Z,10.59
2022-11-17T07:00:12.381Z,10.59
2022-11-17T07:02:15.773Z,10.58
2022-11-17T07:04:20.829Z,10.63
2022-11-17T07:06:24.254Z,10.68
2022-11-17T07:08:27.738Z,10.66
2022-11-17T07:10:33.014Z,10.67
2022-11-17T07:12:36.486Z,10.71
2022-11-17T07:14:39.793Z,10.75
2022-11-17T07:16:43.782Z,10.77
2022-11-17T07:18:47.719Z,10.75
2022-11-17T07:20:52.439Z,10.76
2022-11-17T07:22:59.437Z,10.78
2022-11-17T07:25:02.817Z,10.71
2022-11-17T07:27:06.584Z,10.79
2022-11-17T07:29:09.957Z,10.81
2022-11-17T07:31:13.301Z,10.84
2022-11-17T07:33:16.629Z,10.85
2022-11-17T07:35:20.019Z,10.83
2022-11-17T07:37:24.787Z,10.82
2022-11-17T07:39:28.106Z,10.81
2022-11-17T07:41:32.030Z,10.85
2022-11-17T07:43:36.183Z,10.86
2022-11-17T07:45:39.701Z,10.82
2022-11-17T07:47:43.135Z,10.84
2022-11-17T07:49:46.514Z,10.85
2022-11-17T07:51:49.947Z,10.87
2022-11-17T07:53:55.122Z,10.90
2022-11-17T07:56:03.105Z,10.94
2022-11-17T07:58:06.509Z,10.96
2022-11-17T08:00:11.445Z,11.02
2022-11-17T08:02:17.563Z,10.94
2022-11-17T08:04:20.989Z,10.94
2022-11-17T08:06:24.939Z,10.91
2022-11-17T08:08:28.279Z,10.91
2022-11-17T08:10:33.416Z,10.91
2022-11-17T08:12:36.772Z,10.89
2022-11-17T08:14:40.163Z,10.91
2022-11-17T08:16:43.484Z,10.62
2022-11-17T08:18:52.011Z,10.98
2022-11-17T08:21:02.623Z,11.01
2022-11-17T08:23:06.011Z,10.95
2022-11-17T08:25:10.383Z,10.94
2022-11-17T08:27:15.125Z,11.03
2022-11-17T08:29:18.458Z,11.09
2022-11-17T08:31:21.813Z,11.11
2022-11-17T08:33:25.124Z,11.13
2022-11-17T08:35:32.973Z,11.17
2022-11-17T08:37:41.467Z,11.11
2022-11-17T08:39:44.894Z,11.15
2022-11-17T08:41:48.299Z,11.20
2022-11-17T08:43:53.023Z,11.23
2022-11-17T08:45:56.362Z,11.25
2022-11-17T08:47:59.870Z,11.29
2022-11-17T08:50:03.582Z,11.31
2022-11-17T08:52:06.949Z,11.37
2022-11-17T08:54:13.413Z,11.34
2022-11-17T08:56:16.990Z,11.39
2022-11-17T08:58:20.406Z,11.37
2022-11-17T09:00:25.081Z,11.39
2022-11-17T09:02:28.473Z,11.43
2022-11-17T09:04:31.898Z,11.44
2022-11-17T09:06:35.245Z,11.55
2022-11-17T09:08:45.718Z,11.56
2022-11-17T09:10:51.571Z,11.57
2022-11-17T09:12:56.343Z,11.57
2022-11-17T09:14:59.693Z,11.58
2022-11-17T09:17:04.512Z,11.68
2022-11-17T09:19:07.885Z,11.66
2022-11-17T09:21:12.626Z,11.39
2022-11-17T09:23:15.986Z,11.67
2022-11-17T09:25:19.486Z,11.83
2022-11-17T09:27:22.766Z,11.86
2022-11-17T09:29:26.114Z,11.88
2022-11-17T09:31:30.037Z,11.83
2022-11-17T09:33:34.911Z,11.92
2022-11-17T09:35:38.400Z,11.78
2022-11-17T09:37:41.692Z,11.79
2022-11-17T09:39:45.037Z,11.82
2022-11-17T09:41:50.896Z,11.91
2022-11-17T09:44:13.031Z,11.93
2022-11-17T09:46:20.603Z,11.93
2022-11-17T09:48:41.493Z,12.02
2022-11-17T09:50:47.001Z,12.03
2022-11-17T09:52:59.464Z,12.04
2022-11-17T09:55:10.964Z,12.13
2022-11-17T09:57:24.805Z,12.19
2022-11-17T09:59:30.113Z,12.20
2022-11-17T10:01:33.539Z,12.19
2022-11-17T10:03:44.928Z,12.16
2022-11-17T10:05:50.356Z,12.23
2022-11-17T10:07:55.967Z,12.30
2022-11-17T10:10:01.730Z,12.25
2022-11-17T10:12:17.295Z,12.32
2022-11-17T10:14:23.319Z,12.40
2022-11-17T10:16:26.702Z,12.43
2022-11-17T10:18:37.584Z,12.45
2022-11-17T10:20:43.930Z,12.23
2022-11-17T10:22:48.417Z,12.24
2022-11-17T10:24:55.354Z,12.23
2022-11-17T10:26:58.844Z,12.16
2022-11-17T10:29:12.328Z,12.16
2022-11-17T10:31:17.467Z,12.21
2022-11-17T10:33:36.073Z,12.23
2022-11-17T10:35:39.750Z,12.24
2022-11-17T10:37:53.196Z,12.18
2022-11-17T10:40:23.590Z,12.15
2022-11-17T10:42:28.985Z,12.08
2022-11-17T10:44:33.636Z,12.09
2022-11-17T10:46:57.643Z,12.20
2022-11-17T10:49:23.979Z,12.23
2022-11-17T10:51:29.545Z,12.12
2022-11-17T10:53:45.218Z,12.08
2022-11-17T10:55:55.588Z,12.11
2022-11-17T10:58:03.468Z,12.07
2022-11-17T11:00:23.388Z,12.08
2022-11-17T11:02:30.693Z,12.11
2022-11-17T11:04:36.037Z,12.08
2022-11-17T11:06:39.345Z,12.13
2022-11-17T11:08:52.353Z,12.17
2022-11-17T11:10:59.351Z,12.18
2022-11-17T11:13:10.204Z,12.18
2022-11-17T11:15:19.898Z,12.22
2022-11-17T11:17:23.241Z,12.23
2022-11-17T11:19:26.720Z,12.27
2022-11-17T11:21:51.539Z,12.35
2022-11-17T11:24:04.052Z,12.33
2022-11-17T11:26:18.121Z,12.33
2022-11-17T11:28:44.250Z,12.33
2022-11-17T11:31:00.185Z,12.25
2022-11-17T11:33:21.466Z,12.24
2022-11-17T11:36:00.317Z,12.29
2022-11-17T11:38:16.545Z,12.30
2022-11-17T11:40:28.192Z,12.40
2022-11-17T11:42:51.728Z,12.35
2022-11-17T11:45:14.269Z,12.32
2022-11-17T11:47:35.690Z,12.36
2022-11-17T11:49:44.368Z,12.38
2022-11-17T11:51:50.370Z,12.44
2022-11-17T11:53:58.605Z,12.45
2022-11-17T11:56:11.852Z,12.42
2022-11-17T11:58:23.218Z,12.44
2022-11-17T12:00:26.853Z,12.47
2022-11-17T12:02:38.415Z,12.42
2022-11-17T12:04:48.079Z,12.30
2022-11-17T12:06:56.789Z,12.59
2022-11-17T12:09:12.293Z,12.57
2022-11-17T12:11:32.001Z,12.30
2022-11-17T12:13:40.049Z,12.63
2022-11-17T12:15:47.089Z,12.98
2022-11-17T12:18:02.355Z,13.09
2022-11-17T12:20:26.887Z,13.07
2022-11-17T12:23:02.601Z,13.03
2022-11-17T12:25:17.063Z,12.97
2022-11-17T12:27:45.163Z,12.74
2022-11-17T12:29:48.487Z,12.77
2022-11-17T12:31:52.713Z,12.76
2022-11-17T12:34:24.379Z,12.84
2022-11-17T12:36:31.543Z,12.83
2022-11-17T12:38:42.544Z,12.79
2022-11-17T12:40:47.535Z,12.79
2022-11-17T12:43:22.808Z,12.85
2022-11-17T12:45:26.338Z,12.77
2022-11-17T12:47:32.559Z,12.72
2022-11-17T12:49:46.303Z,12.79
2022-11-17T12:51:56.133Z,12.73
2022-11-17T12:54:07.598Z,12.81
2022-11-17T12:56:28.661Z,12.71
2022-11-17T12:58:43.575Z,12.80
2022-11-17T13:00:56.721Z,12.92
2022-11-17T13:03:09.407Z,12.77
2022-11-17T13:05:18.801Z,12.73
2022-11-17T13:07:25.347Z,12.77
2022-11-17T13:09:30.721Z,12.77
2022-11-17T13:11:35.330Z,12.74
2022-11-17T13:13:45.479Z,12.76
2022-11-17T13:15:51.987Z,12.81
2022-11-17T13:17:55.524Z,12.92
2022-11-17T13:20:01.061Z,12.94
2022-11-17T13:22:07.424Z,12.82
2022-11-17T13:24:10.999Z,12.96
2022-11-17T13:26:21.393Z,12.93
2022-11-17T13:28:29.689Z,12.96
2022-11-17T13:30:34.476Z,12.87
2022-11-17T13:32:40.093Z,12.82
2022-11-17T13:34:48.512Z,12.83
2022-11-17T13:36:56.494Z,12.91
2022-11-17T13:39:01.309Z,12.90
2022-11-17T13:41:06.687Z,12.91
2022-11-17T13:43:13.815Z,12.94
2022-11-17T13:45:17.699Z,12.93
2022-11-17T13:47:29.633Z,12.94
2022-11-17T13:49:36.378Z,12.92
2022-11-17T13:51:40.013Z,12.90
2022-11-17T13:53:45.126Z,12.94
2022-11-17T13:55:48.767Z,12.98
2022-11-17T13:57:57.311Z,12.90
2022-11-17T14:00:02.197Z,12.87
2022-11-17T14:02:26.157Z,12.94
2022-11-17T14:04:29.896Z,12.93
2022-11-17T14:06:53.865Z,12.93
2022-11-17T14:09:06.108Z,12.90
2022-11-17T14:11:21.096Z,12.96
2022-11-17T14:13:30.184Z,13.01
2022-11-17T14:15:37.373Z,12.96
2022-11-17T14:17:42.610Z,13.00
2022-11-17T14:19:46.575Z,12.92
2022-11-17T14:21:59.302Z,12.90
2022-11-17T14:24:11.383Z,12.93
2022-11-17T14:26:20.120Z,12.88
2022-11-17T14:28:24.105Z,12.74
2022-11-17T14:30:27.772Z,12.93
2022-11-17T14:32:32.285Z,12.97
2022-11-17T14:34:36.966Z,12.97
2022-11-17T14:36:40.966Z,12.97
2022-11-17T14:38:44.963Z,12.96
2022-11-17T14:40:51.077Z,13.06
2022-11-17T14:42:54.438Z,13.02
2022-11-17T14:44:57.768Z,13.07
2022-11-17T14:47:01.096Z,12.97
2022-11-17T14:49:04.700Z,12.96
2022-11-17T14:51:09.588Z,12.96
2022-11-17T14:53:12.977Z,12.97
2022-11-17T14:55:16.585Z,12.97
2022-11-17T14:57:19.903Z,13.00
2022-11-17T14:59:23.286Z,12.96
2022-11-17T15:01:30.374Z,12.98
2022-11-17T15:03:33.705Z,12.94
2022-11-17T15:05:37.119Z,12.89
2022-11-17T15:07:42.503Z,12.90
2022-11-17T15:09:45.790Z,12.88
2022-11-17T15:11:49.562Z,12.88
2022-11-17T15:13:53.167Z,12.92
2022-11-17T15:16:02.781Z,12.87
2022-11-17T15:18:06.560Z,12.89
2022-11-17T15:20:10.860Z,12.86
2022-11-17T15:22:14.335Z,12.82
2022-11-17T15:24:19.042Z,12.84
2022-11-17T15:26:23.445Z,12.90
2022-11-17T15:28:30.477Z,12.90
2022-11-17T15:30:34.358Z,12.85
2022-11-17T15:32:37.798Z,12.79
2022-11-17T15:34:41.158Z,12.77
2022-11-17T15:36:44.455Z,12.74
2022-11-17T15:38:48.521Z,12.80
2022-11-17T15:40:55.572Z,12.80
2022-11-17T15:42:59.057Z,12.82
2022-11-17T15:45:02.375Z,12.74
2022-11-17T15:47:06.056Z,12.77
2022-11-17T15:49:09.531Z,12.81
2022-11-17T15:51:14.606Z,12.77
2022-11-17T15:53:17.902Z,12.76
2022-11-17T15:55:21.407Z,12.75
2022-11-17T15:57:26.062Z,12.70
2022-11-17T15:59:31.686Z,12.67
2022-11-17T16:01:36.660Z,12.69
2022-11-17T16:03:41.069Z,12.70
2022-11-17T16:05:44.461Z,12.70
2022-11-17T16:07:47.870Z,12.65
2022-11-17T16:09:51.221Z,12.65
2022-11-17T16:11:54.649Z,12.63
2022-11-17T16:14:00.613Z,12.64
2022-11-17T16:16:04.553Z,12.63
2022-11-17T16:18:07.849Z,12.64
2022-11-17T16:20:12.513Z,12.58
2022-11-17T16:22:15.963Z,12.52
2022-11-17T16:24:19.463Z,12.50
2022-11-17T16:26:25.325Z,12.56
2022-11-17T16:28:28.703Z,12.50
2022-11-17T16:30:35.555Z,12.48
2022-11-17T16:32:39.156Z,12.49
2022-11-17T16:34:43.523Z,12.43
2022-11-17T16:36:46.856Z,12.45
2022-11-17T16:39:00.780Z,12.39
2022-11-17T16:41:05.032Z,12.37
2022-11-17T16:43:10.969Z,12.39
2022-11-17T16:45:14.380Z,12.34
2022-11-17T16:47:19.741Z,12.28
2022-11-17T16:49:23.253Z,12.23
2022-11-17T16:51:26.556Z,12.19
2022-11-17T16:53:29.899Z,12.26
2022-11-17T16:55:35.126Z,12.25
2022-11-17T16:57:38.501Z,12.27
2022-11-17T16:59:41.939Z,12.18
2022-11-17T17:01:45.581Z,12.14
2022-11-17T17:03:50.520Z,12.12
2022-11-17T17:05:53.823Z,12.03
2022-11-17T17:07:57.675Z,11.98
2022-11-17T17:10:01.110Z,11.94
2022-11-17T17:12:04.730Z,11.83
2022-11-17T17:14:12.431Z,11.95
2022-11-17T17:16:17.437Z,11.92
2022-11-17T17:18:20.931Z,11.92
2022-11-17T17:20:25.650Z,11.90
2022-11-17T17:22:29.041Z,11.89
2022-11-17T17:24:32.643Z,11.85
2022-11-17T17:26:37.386Z,11.68
2022-11-17T17:28:43.797Z,11.88
2022-11-17T17:30:54.707Z,11.88
2022-11-17T17:32:58.072Z,11.83
2022-11-17T17:35:01.388Z,11.79
2022-11-17T17:37:06.024Z,11.81
2022-11-17T17:39:14.245Z,11.77
2022-11-17T17:41:19.159Z,11.73
2022-11-17T17:43:22.577Z,11.69
2022-11-17T17:45:25.880Z,11.75
2022-11-17T17:47:29.323Z,11.73
2022-11-17T17:49:32.612Z,11.71
2022-11-17T17:51:39.917Z,11.67
2022-11-17T17:53:44.836Z,11.61
2022-11-17T17:55:48.147Z,11.59
2022-11-17T17:57:54.748Z,11.57
2022-11-17T17:59:58.485Z,11.57
2022-11-17T18:02:02.593Z,11.58
2022-11-17T18:04:07.347Z,11.58
2022-11-17T18:06:12.939Z,11.50
2022-11-17T18:08:16.441Z,11.48
2022-11-17T18:10:21.125Z,11.51
2022-11-17T18:12:24.456Z,11.45
2022-11-17T18:14:27.856Z,11.40
2022-11-17T18:16:33.381Z,11.37
2022-11-17T18:18:37.534Z,11.36
2022-11-17T18:20:40.832Z,11.33
2022-11-17T18:22:44.158Z,11.28
2022-11-17T18:24:47.626Z,11.29
2022-11-17T18:26:52.275Z,11.25
2022-11-17T18:28:57.119Z,11.27
2022-11-17T18:31:03.176Z,11.26
2022-11-17T18:33:06.482Z,11.19
2022-11-17T18:35:10.185Z,11.20
2022-11-17T18:37:14.082Z,11.24
2022-11-17T18:39:17.753Z,11.24
2022-11-17T18:41:22.514Z,11.27
2022-11-17T18:43:30.652Z,11.05
2022-11-17T18:45:38.277Z,11.20
2022-11-17T18:47:41.727Z,11.21
2022-11-17T18:49:45.185Z,11.10
2022-11-17T18:51:48.662Z,11.15
2022-11-17T18:53:54.092Z,11.12
2022-11-17T18:56:02.023Z,11.04
2022-11-17T18:58:05.333Z,11.08
2022-11-17T19:00:11.616Z,10.81
2022-11-17T19:02:15.285Z,10.99
2022-11-17T19:04:18.723Z,11.00
2022-11-17T19:06:24.497Z,10.99
2022-11-17T19:08:29.779Z,10.94
2022-11-17T19:10:33.091Z,10.94
2022-11-17T19:12:36.485Z,10.97
2022-11-17T19:14:39.946Z,10.98
2022-11-17T19:16:45.336Z,11.02
2022-11-17T19:18:50.063Z,10.94
2022-11-17T19:20:53.402Z,10.96
2022-11-17T19:22:57.141Z,10.95
2022-11-17T19:25:00.433Z,11.00
2022-11-17T19:27:03.820Z,10.98
2022-11-17T19:29:15.545Z,10.97
2022-11-17T19:31:21.183Z,10.96
2022-11-17T19:33:25.889Z,10.93
2022-11-17T19:35:29.749Z,10.94
2022-11-17T19:37:33.080Z,10.94
2022-11-17T19:39:36.439Z,10.92
2022-11-17T19:41:40.079Z,10.92
2022-11-17T19:43:45.673Z,10.87
2022-11-17T19:45:49.247Z,10.89
2022-11-17T19:47:52.663Z,10.91
2022-11-17T19:49:57.311Z,10.90
2022-11-17T19:52:00.706Z,10.89
2022-11-17T19:54:05.907Z,10.80
2022-11-17T19:56:09.803Z,10.91
2022-11-17T19:58:13.124Z,10.94
2022-11-17T20:00:17.745Z,10.90
2022-11-17T20:02:21.040Z,10.87
2022-11-17T20:04:24.424Z,10.88
2022-11-17T20:06:31.933Z,10.89
2022-11-17T20:08:35.237Z,10.90
2022-11-17T20:10:38.516Z,10.96
2022-11-17T20:12:43.330Z,10.96
2022-11-17T20:14:47.212Z,10.98
2022-11-17T20:16:50.564Z,11.03
2022-11-17T20:18:55.549Z,10.96
2022-11-17T20:20:59.494Z,11.05
2022-11-17T20:23:04.173Z,11.09
2022-11-17T20:25:08.008Z,11.07
2022-11-17T20:27:11.452Z,11.08
2022-11-17T20:29:15.100Z,11.07
2022-11-17T20:31:21.073Z,11.06
2022-11-17T20:33:24.417Z,11.11
2022-11-17T20:35:28.112Z,11.21
2022-11-17T20:37:31.569Z,11.23
2022-11-17T20:39:36.301Z,11.21
2022-11-17T20:41:39.641Z,11.19
2022-11-17T20:43:42.972Z,11.26
2022-11-17T20:45:46.400Z,11.26
2022-11-17T20:47:50.001Z,11.23
2022-11-17T20:49:53.428Z,11.23
2022-11-17T20:51:56.850Z,11.13
2022-11-17T20:54:00.229Z,11.01
2022-11-17T20:56:07.161Z,10.93
2022-11-17T20:58:10.519Z,10.93
2022-11-17T21:00:14.797Z,10.92
2022-11-17T21:02:18.153Z,10.88
2022-11-17T21:04:21.475Z,10.87
2022-11-17T21:06:24.854Z,10.85
2022-11-17T21:08:30.826Z,10.83
2022-11-17T21:10:34.261Z,10.85
2022-11-17T21:12:38.895Z,10.75
2022-11-17T21:14:42.195Z,10.74
2022-11-17T21:16:46.518Z,10.71
2022-11-17T21:18:48.881Z,10.64
2022-11-17T21:20:52.634Z,10.67
2022-11-17T21:22:56.021Z,10.71
2022-11-17T21:24:59.314Z,10.67
2022-11-17T21:27:02.660Z,10.79
2022-11-17T21:29:07.367Z,10.81
2022-11-17T21:31:12.824Z,10.74
2022-11-17T21:33:16.157Z,10.86
2022-11-17T21:35:20.692Z,10.85
2022-11-17T21:37:24.229Z,10.85
2022-11-17T21:39:27.562Z,10.90
2022-11-17T21:41:35.150Z,10.89
2022-11-17T21:43:39.562Z,10.87
2022-11-17T21:45:44.291Z,10.83
2022-11-17T21:47:47.741Z,10.69
2022-11-17T21:49:51.147Z,10.56
2022-11-17T21:51:54.472Z,10.51
2022-11-17T21:53:59.506Z,10.41
2022-11-17T21:56:03.989Z,10.17
2022-11-17T21:58:07.284Z,10.34
2022-11-17T22:00:12.208Z,10.36
2022-11-17T22:02:16.864Z,10.45
2022-11-17T22:04:20.183Z,10.51
2022-11-17T22:06:25.552Z,10.29
2022-11-17T22:08:28.895Z,10.59
2022-11-17T22:10:32.275Z,10.41
2022-11-17T22:12:35.612Z,10.39
2022-11-17T22:14:38.921Z,10.33
2022-11-17T22:16:44.031Z,10.18
2022-11-17T22:18:48.730Z,10.20
2022-11-17T22:20:52.584Z,10.07
2022-11-17T22:22:57.282Z,10.09
2022-11-17T22:25:16.798Z,10.03
2022-11-17T22:27:26.292Z,10.01
2022-11-17T22:29:29.593Z,10.02
2022-11-17T22:31:33.336Z,10.06
2022-11-17T22:33:39.939Z,10.05
2022-11-17T22:35:45.237Z,10.09
2022-11-17T22:37:48.523Z,10.08
2022-11-17T22:39:51.832Z,10.16
2022-11-17T22:41:55.128Z,10.11
2022-11-17T22:43:59.579Z,10.09
2022-11-17T22:46:04.473Z,10.18
2022-11-17T22:48:08.365Z,10.13
2022-11-17T22:50:12.061Z,10.23
2022-11-17T22:52:16.705Z,10.19
2022-11-17T22:54:20.368Z,10.21
2022-11-17T22:56:23.693Z,10.17
2022-11-17T22:58:27.340Z,10.24
2022-11-17T23:00:32.765Z,10.34
2022-11-17T23:02:36.047Z,10.30
2022-11-17T23:04:39.370Z,10.25
2022-11-17T23:06:42.760Z,10.35
2022-11-17T23:08:47.471Z,10.33
2022-11-17T23:11:03.877Z,10.22
2022-11-17T23:13:14.094Z,10.10
2022-11-17T23:15:17.561Z,10.00
2022-11-17T23:17:21.200Z,10.02
2022-11-17T23:19:24.610Z,9.97
2022-11-17T23:21:27.977Z,10.01
2022-11-17T23:23:33.752Z,9.98
2022-11-17T23:25:38.411Z,9.98
2022-11-17T23:27:41.707Z,9.97
2022-11-17T23:29:45.023Z,10.00
2022-11-17T23:31:48.427Z,10.04
2022-11-17T23:33:51.757Z,10.12
2022-11-17T23:35:58.359Z,10.21
2022-11-17T23:38:01.732Z,10.10
2022-11-17T23:40:05.710Z,10.06
2022-11-17T23:42:10.403Z,10.04
2022-11-17T23:44:13.708Z,10.02
2022-11-17T23:46:19.123Z,10.04
2022-11-17T23:48:22.669Z,10.03
2022-11-17T23:50:26.333Z,10.03
2022-11-17T23:52:29.722Z,10.04
2022-11-17T23:54:32.991Z,10.03
2022-11-17T23:56:36.299Z,10.17
2022-11-17T23:58:41.479Z,10.10
